Time;durP1;ratioP1;P1;durP2;ratioP2;P2;SDS_P1;SDS_P2;PMS_P1;PMS_P2;Temp;Humidity;BMP_temperature;BMP_pressure;BME280_temperature;BME280_humidity;BME280_pressure;Samples;Min_cycle;Max_cycle;Signal;HPM_P1;HPM_P2
2024/01/31 00:02:55;;;;;;;17.20;12.30;;;;;;;1.77;75.18;101133.33;217640;1260;141068;-71
2024/01/31 00:08:00;;;;;;;16.00;9.50;;;;;;;1.75;75.10;101132.65;217886;1257;140217;-69
2024/01/31 00:13:04;;;;;;;21.20;10.10;;;;;;;1.73;75.32;101131.67;219641;1257;140321;-70
2024/01/31 00:18:07;;;;;;;20.20;12.20;;;;;;;1.72;75.46;101126.42;219639;1258;140906;-69
2024/01/31 00:23:11;;;;;;;24.60;13.10;;;;;;;1.73;75.22;101125.48;218991;1259;142040;-68
2024/01/31 00:28:15;;;;;;;18.40;11.10;;;;;;;1.73;75.61;101125.02;217065;1258;236275;-70
2024/01/31 00:33:18;;;;;;;20.20;10.70;;;;;;;1.70;75.50;101126.79;216541;1260;140962;-70
2024/01/31 00:38:23;;;;;;;21.10;11.10;;;;;;;1.67;75.55;101127.23;217025;1259;139956;-69
2024/01/31 00:43:29;;;;;;;20.70;11.60;;;;;;;1.64;75.68;101131.89;216512;1259;142149;-69
2024/01/31 00:48:39;;;;;;;17.70;11.30;;;;;;;1.61;75.67;101133.20;216579;1259;141056;-68
2024/01/31 00:53:47;;;;;;;18.90;10.40;;;;;;;1.60;75.80;101132.48;216392;1260;140233;-68
2024/01/31 00:58:52;;;;;;;19.80;12.20;;;;;;;1.57;75.99;101129.27;216717;1263;140452;-68
2024/01/31 01:03:57;;;;;;;17.60;11.50;;;;;;;1.54;76.03;101123.76;216545;1259;141055;-68
2024/01/31 01:09:03;;;;;;;22.80;11.10;;;;;;;1.50;76.37;101122.95;216902;1262;140230;-68
2024/01/31 01:14:07;;;;;;;19.20;10.80;;;;;;;1.44;76.22;101122.21;216404;1259;140105;-65
2024/01/31 01:19:12;;;;;;;26.80;12.00;;;;;;;1.41;76.61;101114.80;216900;1259;140090;-66
2024/01/31 01:24:16;;;;;;;22.90;14.60;;;;;;;1.41;76.73;101121.01;216534;1259;140141;-67
2024/01/31 01:29:29;;;;;;;17.20;11.20;;;;;;;1.41;76.39;101113.27;216603;1259;140070;-68
2024/01/31 01:34:33;;;;;;;27.70;13.40;;;;;;;1.41;76.90;101110.13;217080;1259;141353;-67
2024/01/31 01:39:39;;;;;;;17.10;11.50;;;;;;;1.41;76.86;101106.40;216940;1260;140694;-67
2024/01/31 01:44:47;;;;;;;22.30;12.50;;;;;;;1.42;77.49;101107.14;217507;1263;140492;-69
2024/01/31 01:49:51;;;;;;;20.00;12.50;;;;;;;1.46;77.23;101111.37;217163;1262;139990;-68
2024/01/31 01:55:39;;;;;;;25.80;13.00;;;;;;;1.50;77.14;101110.84;218261;1262;141584;-68
2024/01/31 02:00:46;;;;;;;;;;;;;;;1.53;77.33;101107.88;216975;1263;141835;-68
2024/01/31 02:05:50;;;;;;;19.40;12.30;;;;;;;1.54;77.60;101106.96;218116;1259;127126;-67
2024/01/31 02:10:58;;;;;;;23.10;15.00;;;;;;;1.56;77.32;101107.26;217590;1259;140537;-67
2024/01/31 02:16:03;;;;;;;17.70;11.60;;;;;;;1.59;77.71;101100.34;218424;1259;140413;-67
2024/01/31 02:21:07;;;;;;;18.00;12.10;;;;;;;1.61;77.53;101099.75;217002;1259;142055;-66
2024/01/31 02:26:11;;;;;;;20.90;12.60;;;;;;;1.63;77.69;101094.35;216826;1263;142085;-67
2024/01/31 02:31:17;;;;;;;17.30;10.00;;;;;;;1.65;77.65;101097.14;216958;1259;140625;-67
2024/01/31 02:36:21;;;;;;;21.70;11.40;;;;;;;1.64;77.89;101098.44;219359;1259;141003;-66
2024/01/31 02:41:25;;;;;;;24.30;12.50;;;;;;;1.65;77.84;101098.33;218861;1260;141173;-66
2024/01/31 02:46:29;;;;;;;21.90;14.30;;;;;;;1.68;77.78;101099.23;216686;1259;140215;-67
2024/01/31 02:51:34;;;;;;;23.20;12.40;;;;;;;1.72;78.20;101097.53;218578;1260;140247;-67
2024/01/31 02:56:39;;;;;;;21.40;13.70;;;;;;;1.74;78.33;101089.79;217174;1263;140487;-67
2024/01/31 03:01:45;;;;;;;17.40;10.80;;;;;;;1.78;78.45;101086.75;217540;1263;140296;-66
2024/01/31 03:06:51;;;;;;;23.20;13.20;;;;;;;1.83;78.55;101080.69;216710;1259;139763;-67
2024/01/31 03:11:56;;;;;;;19.90;13.50;;;;;;;1.88;78.78;101076.86;216389;1259;140882;-68
2024/01/31 03:17:04;;;;;;;25.70;13.30;;;;;;;1.93;78.75;101078.90;217458;1260;140772;-67
2024/01/31 03:22:09;;;;;;;23.20;12.60;;;;;;;1.98;78.85;101086.12;217215;1259;142145;-68
2024/01/31 03:27:13;;;;;;;20.30;12.10;;;;;;;2.06;78.86;101095.23;217529;1260;141986;-68
2024/01/31 03:32:19;;;;;;;19.60;12.70;;;;;;;2.11;79.04;101094.02;217731;1260;140194;-68
2024/01/31 03:37:25;;;;;;;22.70;12.90;;;;;;;2.18;78.89;101096.48;217155;1259;141040;-67
2024/01/31 03:42:33;;;;;;;21.60;12.80;;;;;;;2.24;79.02;101099.24;217846;1263;141035;-68
2024/01/31 03:47:38;;;;;;;17.60;12.50;;;;;;;2.31;78.92;101098.17;219851;1259;141403;-68
2024/01/31 03:52:45;;;;;;;20.80;12.30;;;;;;;2.39;78.77;101100.74;219693;1260;221869;-68
2024/01/31 03:57:50;;;;;;;18.70;12.60;;;;;;;2.48;78.98;101097.42;219406;1260;140829;-69
2024/01/31 04:02:54;;;;;;;21.70;11.50;;;;;;;2.55;79.00;101096.16;219496;1260;141217;-69
2024/01/31 04:08:02;;;;;;;21.10;12.50;;;;;;;2.62;79.01;101099.69;218792;1262;141353;-68
2024/01/31 04:13:10;;;;;;;21.10;11.70;;;;;;;2.67;78.93;101103.92;216824;1260;140731;-68
2024/01/31 04:18:14;;;;;;;17.20;13.30;;;;;;;2.72;79.03;101102.06;216324;1260;139899;-68
2024/01/31 04:23:19;;;;;;;18.00;11.30;;;;;;;2.72;78.82;101098.07;218574;1260;142208;-68
2024/01/31 04:28:24;;;;;;;16.10;10.60;;;;;;;2.70;78.98;101096.15;216441;1262;140188;-68
2024/01/31 04:33:29;;;;;;;23.50;11.20;;;;;;;2.67;78.94;101101.52;216627;1260;141498;-67
2024/01/31 04:38:33;;;;;;;19.20;11.80;;;;;;;2.65;79.00;101098.04;217564;1263;141883;-69
2024/01/31 04:43:40;;;;;;;21.00;12.70;;;;;;;2.66;79.38;101092.98;216251;1263;140206;-68
2024/01/31 04:48:45;;;;;;;27.80;14.80;;;;;;;2.70;79.45;101099.14;216317;1260;140036;-68
2024/01/31 04:53:53;;;;;;;18.60;8.30;;;;;;;2.72;79.35;101095.24;216396;1261;682577;-68
2024/01/31 04:58:57;;;;;;;22.20;14.30;;;;;;;2.74;79.56;101093.43;216597;1264;140409;-66
2024/01/31 05:04:03;;;;;;;20.10;13.40;;;;;;;2.74;79.46;101099.39;217838;1260;140982;-68
2024/01/31 05:09:08;;;;;;;17.90;11.20;;;;;;;2.74;79.68;101101.23;216618;1261;140992;-68
2024/01/31 05:14:13;;;;;;;23.00;13.50;;;;;;;2.75;79.64;101103.08;216960;1264;140966;-68
2024/01/31 05:19:18;;;;;;;20.40;12.40;;;;;;;2.74;79.74;101103.08;217003;1263;140269;-68
2024/01/31 05:24:22;;;;;;;24.70;14.10;;;;;;;2.75;79.88;101106.70;217303;1261;140336;-68
2024/01/31 05:29:26;;;;;;;25.80;14.20;;;;;;;2.78;80.03;101111.11;218554;1259;140861;-68
2024/01/31 05:34:30;;;;;;;25.90;13.40;;;;;;;2.82;79.82;101121.78;218787;1262;139908;-68
2024/01/31 05:39:37;;;;;;;20.70;13.70;;;;;;;2.86;79.98;101123.47;218079;1263;140773;-68
2024/01/31 05:44:42;;;;;;;23.80;12.50;;;;;;;2.90;80.07;101123.08;217478;1260;140312;-68
2024/01/31 05:49:46;;;;;;;20.00;13.00;;;;;;;2.94;80.06;101124.97;216450;1260;140578;-68
2024/01/31 05:54:51;;;;;;;19.70;12.70;;;;;;;2.97;80.04;101129.44;216842;1263;140086;-68
2024/01/31 05:59:56;;;;;;;21.30;12.60;;;;;;;3.01;80.05;101130.63;216627;1264;141036;-68
2024/01/31 06:05:01;;;;;;;23.60;16.10;;;;;;;3.04;80.05;101128.55;219690;1261;140802;-68
2024/01/31 06:10:10;;;;;;;22.20;13.90;;;;;;;3.09;80.10;101127.71;216926;1265;142024;-68
2024/01/31 06:15:16;;;;;;;23.20;13.90;;;;;;;3.13;80.15;101126.46;216599;1262;140945;-68
2024/01/31 06:20:20;;;;;;;23.20;13.50;;;;;;;3.16;80.34;101132.25;217668;1260;141167;-67
2024/01/31 06:25:25;;;;;;;18.60;10.00;;;;;;;3.19;80.33;101132.52;216699;1260;140900;-68
2024/01/31 06:30:40;;;;;;;25.20;12.90;;;;;;;3.21;80.46;101134.83;216621;1261;141959;-68
2024/01/31 06:35:47;;;;;;;18.00;12.40;;;;;;;3.22;80.48;101135.90;217293;1263;141233;-68
2024/01/31 06:40:58;;;;;;;22.10;14.00;;;;;;;3.23;80.53;101135.41;216579;1263;140358;-68
2024/01/31 06:46:03;;;;;;;25.60;15.20;;;;;;;3.26;80.65;101135.14;216870;1260;140290;-68
2024/01/31 06:51:11;;;;;;;26.10;14.90;;;;;;;3.29;80.62;101136.77;216504;1263;140185;-68
2024/01/31 06:56:19;;;;;;;25.40;15.10;;;;;;;3.32;80.81;101136.60;216421;1261;140101;-68
2024/01/31 07:01:23;;;;;;;21.60;15.10;;;;;;;3.36;80.89;101143.77;217607;1261;141431;-68
2024/01/31 07:06:27;;;;;;;22.70;14.10;;;;;;;3.42;80.95;101137.55;216854;1263;141362;-68
2024/01/31 07:11:32;;;;;;;23.10;13.30;;;;;;;3.48;80.90;101140.27;216676;1261;139995;-68
2024/01/31 07:16:36;;;;;;;22.20;14.50;;;;;;;3.54;80.88;101144.10;218234;1259;140133;-69
2024/01/31 07:21:41;;;;;;;17.90;14.00;;;;;;;3.59;81.13;101152.41;217201;1262;140380;-68
2024/01/31 07:26:46;;;;;;;26.60;11.20;;;;;;;3.63;81.17;101151.59;216271;1263;141194;-68
2024/01/31 07:31:51;;;;;;;22.30;14.10;;;;;;;3.69;81.08;101148.86;216659;1264;141144;-68
2024/01/31 07:36:56;;;;;;;23.10;13.50;;;;;;;3.74;81.12;101152.95;217809;1263;140520;-68
2024/01/31 07:42:01;;;;;;;21.50;14.30;;;;;;;3.80;81.17;101150.75;218594;1261;140728;-68
2024/01/31 07:47:05;;;;;;;21.20;11.90;;;;;;;3.86;81.32;101153.48;219567;1259;141354;-68
2024/01/31 07:52:11;;;;;;;21.60;14.30;;;;;;;3.90;81.16;101156.72;219545;1259;141675;-69
2024/01/31 07:57:16;;;;;;;22.70;12.50;;;;;;;4.00;81.30;101158.86;216415;1260;140207;-68
2024/01/31 08:02:20;;;;;;;20.70;15.00;;;;;;;4.13;81.17;101160.77;219548;1259;140478;-68
2024/01/31 08:07:26;;;;;;;18.10;12.80;;;;;;;4.23;80.98;101154.44;216690;1260;140758;-69
2024/01/31 08:12:30;;;;;;;28.60;15.30;;;;;;;4.33;81.19;101164.59;216814;1260;140542;-67
2024/01/31 08:17:35;;;;;;;20.80;11.50;;;;;;;4.42;81.27;101164.02;218513;1257;140146;-68
2024/01/31 08:22:39;;;;;;;18.20;12.30;;;;;;;4.49;81.34;101162.45;216305;1263;140048;-69
2024/01/31 08:27:43;;;;;;;20.70;14.30;;;;;;;4.54;81.25;101167.59;216421;1263;140512;-69
2024/01/31 08:32:47;;;;;;;26.40;13.10;;;;;;;4.54;80.91;101169.66;216423;1263;141244;-68
2024/01/31 08:37:52;;;;;;;21.80;15.10;;;;;;;4.55;81.00;101174.98;216763;1260;140892;-68
2024/01/31 08:42:58;;;;;;;14.10;10.20;;;;;;;4.58;81.11;101179.58;216314;1260;140259;-69
2024/01/31 08:48:02;;;;;;;15.30;12.30;;;;;;;4.64;81.37;101178.98;216437;1259;140205;-69
2024/01/31 08:53:05;;;;;;;22.30;15.40;;;;;;;4.68;81.43;101182.06;216762;1260;141116;-68
2024/01/31 08:58:10;;;;;;;21.20;13.00;;;;;;;4.75;81.18;101186.09;216789;1262;140191;-68
2024/01/31 09:03:14;;;;;;;20.80;14.50;;;;;;;4.81;81.27;101186.70;216391;1259;139874;-68
2024/01/31 09:08:20;;;;;;;22.00;14.90;;;;;;;4.86;81.38;101183.34;216272;1259;140078;-68
2024/01/31 09:13:24;;;;;;;22.00;14.70;;;;;;;4.96;81.46;101180.14;217576;1257;142488;-67
2024/01/31 09:18:28;;;;;;;26.80;14.90;;;;;;;5.07;81.43;101176.50;216437;1260;140109;-68
2024/01/31 09:23:32;;;;;;;25.00;15.10;;;;;;;5.16;81.32;101177.11;217764;1261;140407;-68
2024/01/31 09:28:36;;;;;;;24.90;15.00;;;;;;;5.22;81.18;101182.85;216540;1259;140981;-68
2024/01/31 09:33:40;;;;;;;21.00;12.90;;;;;;;5.25;81.68;101190.61;216411;1260;140292;-68
2024/01/31 09:38:47;;;;;;;31.80;14.80;;;;;;;5.27;81.32;101195.64;216592;1260;140051;-69
2024/01/31 09:43:53;;;;;;;27.50;16.40;;;;;;;5.28;81.28;101199.05;219468;1259;140487;-69
2024/01/31 09:48:57;;;;;;;27.00;13.20;;;;;;;5.27;81.28;101196.86;219647;1259;140944;-69
2024/01/31 09:54:03;;;;;;;20.10;14.20;;;;;;;5.31;81.55;101189.59;219488;1258;141006;-69
2024/01/31 09:59:08;;;;;;;15.50;11.50;;;;;;;5.40;81.48;101185.54;218398;1257;140959;-69
2024/01/31 10:04:14;;;;;;;22.80;15.00;;;;;;;5.51;81.27;101181.56;216682;1258;140499;-68
2024/01/31 10:09:20;;;;;;;21.70;12.50;;;;;;;5.61;81.74;101176.63;216491;1257;141137;-69
2024/01/31 10:14:25;;;;;;;22.60;14.30;;;;;;;5.68;81.33;101173.58;217606;1258;139993;-68
2024/01/31 10:19:29;;;;;;;19.00;13.20;;;;;;;5.76;81.65;101165.08;217311;1260;140897;-68
2024/01/31 10:24:34;;;;;;;21.10;14.00;;;;;;;5.85;81.64;101158.65;216689;1259;140218;-68
2024/01/31 10:29:39;;;;;;;22.40;15.00;;;;;;;5.93;81.68;101149.24;216656;1257;140091;-69
2024/01/31 10:34:44;;;;;;;21.20;13.80;;;;;;;6.02;81.63;101141.94;216391;1262;140906;-70
2024/01/31 10:40:12;;;;;;;20.70;13.00;;;;;;;6.08;81.67;101136.83;216696;1257;140682;-70
2024/01/31 10:45:18;;;;;;;26.30;16.00;;;;;;;6.17;81.64;101135.08;217230;1262;140296;-69
2024/01/31 10:50:23;;;;;;;21.40;14.00;;;;;;;6.33;81.88;101140.72;217064;1259;143290;-68
2024/01/31 10:55:29;;;;;;;33.30;17.10;;;;;;;6.51;81.69;101136.17;216577;1262;140217;-69
2024/01/31 11:00:34;;;;;;;21.60;14.50;;;;;;;6.76;81.52;101128.71;217191;1257;140267;-68
2024/01/31 11:05:41;;;;;;;27.40;17.90;;;;;;;6.98;81.17;101123.86;216716;1259;140319;-69
2024/01/31 11:10:45;;;;;;;20.30;14.40;;;;;;;7.12;80.97;101121.61;216563;1257;140081;-69
2024/01/31 11:15:49;;;;;;;19.90;13.60;;;;;;;7.17;81.14;101119.89;217020;1259;140007;-68
2024/01/31 11:20:56;;;;;;;18.90;12.80;;;;;;;7.11;80.97;101113.13;216352;1259;140308;-70
2024/01/31 11:26:02;;;;;;;19.30;12.00;;;;;;;7.09;80.70;101108.11;216565;1257;141905;-68
2024/01/31 11:31:06;;;;;;;18.10;10.20;;;;;;;7.09;80.73;101107.58;219647;1259;141311;-69
2024/01/31 11:36:10;;;;;;;14.50;10.20;;;;;;;7.08;81.11;101097.58;219030;1259;142003;-69
2024/01/31 11:41:15;;;;;;;13.10;9.00;;;;;;;7.20;81.29;101088.94;216784;1259;140735;-70
2024/01/31 11:46:18;;;;;;;10.60;8.40;;;;;;;7.35;81.26;101082.39;219486;1259;141274;-69
2024/01/31 11:51:23;;;;;;;14.10;8.30;;;;;;;7.49;81.10;101082.55;219573;1257;139893;-69
2024/01/31 11:56:27;;;;;;;10.40;7.70;;;;;;;7.64;81.18;101091.48;219504;1259;140818;-69
2024/01/31 12:01:32;;;;;;;10.90;8.90;;;;;;;7.84;80.85;101093.76;216570;1259;140120;-69
2024/01/31 12:06:36;;;;;;;16.90;9.50;;;;;;;7.94;80.63;101094.47;216374;1259;140772;-69
2024/01/31 12:11:41;;;;;;;11.40;7.80;;;;;;;7.93;80.33;101097.55;216569;1260;140801;-69
2024/01/31 12:16:46;;;;;;;14.60;8.90;;;;;;;7.85;80.34;101101.61;217026;1259;140522;-70
2024/01/31 12:21:52;;;;;;;11.40;7.40;;;;;;;7.82;79.96;101105.16;216551;1259;139902;-70
2024/01/31 12:26:56;;;;;;;11.90;7.80;;;;;;;7.79;80.01;101100.91;216370;1259;140749;-70
2024/01/31 12:32:01;;;;;;;14.60;9.20;;;;;;;7.73;80.02;101098.34;216771;1258;140010;-69
2024/01/31 12:37:05;;;;;;;10.20;8.10;;;;;;;7.64;79.88;101094.38;216359;1259;139802;-70
2024/01/31 12:42:10;;;;;;;11.30;8.40;;;;;;;7.56;79.79;101091.77;216392;1259;139978;-69
2024/01/31 12:47:15;;;;;;;13.90;9.10;;;;;;;7.42;79.80;101096.91;216613;1260;140568;-69
2024/01/31 12:52:24;;;;;;;11.10;9.70;;;;;;;7.24;79.86;101097.36;216335;1263;141889;-69
2024/01/31 12:57:30;;;;;;;11.30;6.70;;;;;;;7.15;79.99;101094.68;216346;1258;139845;-71
2024/01/31 13:02:34;;;;;;;12.20;8.30;;;;;;;7.09;80.26;101091.60;216654;1260;139992;-72
2024/01/31 13:07:39;;;;;;;8.80;7.00;;;;;;;6.99;80.25;101095.35;216555;1259;140549;-70
2024/01/31 13:12:43;;;;;;;10.80;7.30;;;;;;;6.90;80.47;101092.80;217843;1263;140657;-70
2024/01/31 13:17:47;;;;;;;11.20;8.80;;;;;;;6.83;80.63;101087.81;216614;1259;139844;-70
2024/01/31 13:22:52;;;;;;;11.30;8.20;;;;;;;6.78;80.65;101085.77;216686;1259;139999;-71
2024/01/31 13:27:56;;;;;;;10.10;7.90;;;;;;;6.69;80.57;101077.43;217136;1259;140434;-71
2024/01/31 13:33:00;;;;;;;8.10;5.80;;;;;;;6.66;80.66;101072.45;216785;1259;140347;-69
2024/01/31 13:38:04;;;;;;;8.20;6.10;;;;;;;6.65;81.25;101075.40;219514;1259;140757;-70
2024/01/31 13:43:09;;;;;;;7.80;6.50;;;;;;;6.64;81.00;101073.30;219640;1259;141566;-70
2024/01/31 13:48:13;;;;;;;10.50;7.90;;;;;;;6.64;81.27;101064.45;219731;1259;140315;-70
2024/01/31 13:53:18;;;;;;;7.20;5.20;;;;;;;6.68;81.01;101064.48;218469;1259;140515;-71
2024/01/31 13:58:21;;;;;;;8.20;6.60;;;;;;;6.68;80.65;101058.33;216548;1262;140869;-68
2024/01/31 14:03:26;;;;;;;8.80;7.00;;;;;;;6.62;80.79;101059.03;216507;1262;139732;-69
2024/01/31 14:08:31;;;;;;;13.30;9.10;;;;;;;6.56;81.29;101051.38;216441;1259;139828;-70
2024/01/31 14:13:35;;;;;;;9.80;8.00;;;;;;;6.52;80.89;101041.96;216900;1259;139796;-70
2024/01/31 14:18:42;;;;;;;20.10;8.30;;;;;;;6.50;81.27;101043.30;216872;1259;140600;-70
2024/01/31 14:23:48;;;;;;;15.60;9.60;;;;;;;6.46;81.14;101037.86;216339;1259;139804;-71
2024/01/31 14:29:03;;;;;;;12.70;9.70;;;;;;;6.42;81.43;101037.60;216584;1262;140690;-71
2024/01/31 14:34:07;;;;;;;10.80;7.50;;;;;;;6.41;81.66;101040.02;216327;1259;139896;-69
2024/01/31 14:39:12;;;;;;;12.50;10.30;;;;;;;6.38;81.85;101036.85;216113;1260;143382;-70
2024/01/31 14:44:16;;;;;;;11.10;8.30;;;;;;;6.33;81.67;101029.17;216462;1259;141058;-72
2024/01/31 14:49:21;;;;;;;12.50;10.10;;;;;;;6.25;81.64;101027.09;216456;1263;140793;-73
2024/01/31 14:54:25;;;;;;;14.30;10.70;;;;;;;6.19;81.94;101021.23;216569;1262;141758;-71
2024/01/31 14:59:30;;;;;;;11.90;9.90;;;;;;;6.16;81.90;101022.83;216182;1259;140906;-70
2024/01/31 15:04:36;;;;;;;10.70;7.90;;;;;;;6.14;82.16;101029.75;216721;1259;143359;-70
2024/01/31 15:09:43;;;;;;;10.00;7.90;;;;;;;6.11;81.78;101024.79;216699;1259;140222;-71
2024/01/31 15:14:47;;;;;;;15.50;9.60;;;;;;;6.06;82.32;101020.36;217133;1259;140559;-68
2024/01/31 15:19:51;;;;;;;16.40;10.10;;;;;;;5.99;82.11;101018.21;217006;1262;139979;-68
2024/01/31 15:24:55;;;;;;;13.00;10.40;;;;;;;5.94;82.62;101026.96;217377;1263;142215;-68
2024/01/31 15:29:59;;;;;;;14.20;10.70;;;;;;;5.89;82.11;101021.08;216674;1262;141118;-67
2024/01/31 15:35:04;;;;;;;13.60;10.50;;;;;;;5.86;82.41;101025.30;216865;1262;140214;-68
2024/01/31 15:40:09;;;;;;;14.00;10.40;;;;;;;5.82;82.66;101028.23;217482;1261;140301;-69
2024/01/31 15:45:13;;;;;;;14.00;9.90;;;;;;;5.79;82.53;101032.67;216674;1262;141201;-72
2024/01/31 15:50:17;;;;;;;12.00;10.30;;;;;;;5.76;83.05;101034.90;216869;1259;140444;-71
2024/01/31 15:55:22;;;;;;;10.00;9.00;;;;;;;5.70;82.90;101044.20;216747;1259;141193;-72
2024/01/31 16:00:27;;;;;;;10.20;7.30;;;;;;;5.66;83.03;101042.73;219460;1259;141992;-68
2024/01/31 16:05:31;;;;;;;7.20;6.20;;;;;;;5.64;83.03;101043.27;217797;1259;139767;-70
2024/01/31 16:10:36;;;;;;;6.10;5.10;;;;;;;5.62;83.15;101053.02;219465;1261;150689;-68
2024/01/31 16:15:40;;;;;;;8.00;5.40;;;;;;;5.59;82.69;101048.42;216572;1259;140886;-69
2024/01/31 16:20:48;;;;;;;6.60;6.00;;;;;;;5.57;82.60;101048.46;217837;1259;139649;-71
2024/01/31 16:25:52;;;;;;;4.50;4.10;;;;;;;5.56;82.77;101047.38;218355;1259;139521;-71
2024/01/31 16:30:56;;;;;;;5.90;4.90;;;;;;;5.53;82.39;101049.63;216862;1259;140022;-68
2024/01/31 16:36:00;;;;;;;5.30;3.60;;;;;;;5.48;82.53;101049.46;217561;1259;139893;-68
2024/01/31 16:41:05;;;;;;;5.50;4.10;;;;;;;5.45;82.21;101054.27;216815;1264;140406;-69
2024/01/31 16:46:10;;;;;;;5.20;3.80;;;;;;;5.41;82.34;101055.05;217851;1257;139610;-67
2024/01/31 16:51:14;;;;;;;5.20;3.30;;;;;;;5.34;81.98;101050.29;217310;1259;139950;-67
2024/01/31 16:56:18;;;;;;;7.40;4.20;;;;;;;5.32;82.46;101046.73;216571;1262;250434;-69
2024/01/31 17:01:23;;;;;;;3.80;3.50;;;;;;;5.31;82.34;101052.11;216638;1263;139976;-70
2024/01/31 17:06:28;;;;;;;4.40;3.40;;;;;;;5.28;82.35;101051.67;216840;1262;141414;-71
2024/01/31 17:11:35;;;;;;;4.10;3.20;;;;;;;5.26;82.24;101041.38;217802;1259;140891;-68
2024/01/31 17:16:46;;;;;;;6.60;3.60;;;;;;;5.22;82.35;101034.04;216803;1264;140480;-67
2024/01/31 17:21:49;;;;;;;8.00;4.70;;;;;;;5.18;82.35;101034.20;216832;1259;140061;-70
2024/01/31 17:26:54;;;;;;;6.40;3.90;;;;;;;5.15;82.65;101041.05;217148;1263;139875;-68
2024/01/31 17:31:59;;;;;;;6.50;3.90;;;;;;;5.06;82.34;101034.41;217730;1263;140998;-66
2024/01/31 17:37:04;;;;;;;6.50;5.30;;;;;;;5.01;82.40;101038.67;219485;1259;140347;-69
2024/01/31 17:42:09;;;;;;;5.50;4.90;;;;;;;4.96;82.40;101027.02;218111;1259;139636;-67
2024/01/31 17:47:13;;;;;;;7.50;4.60;;;;;;;4.94;82.50;101015.98;217555;1262;139637;-71
2024/01/31 17:52:17;;;;;;;9.80;4.90;;;;;;;4.91;82.53;101007.48;216986;1259;142537;-69
2024/01/31 17:57:21;;;;;;;8.60;4.40;;;;;;;4.91;82.55;101002.73;217829;1263;140037;-68
2024/01/31 18:02:25;;;;;;;5.60;3.90;;;;;;;4.89;82.32;100998.36;216572;1262;139837;-69
2024/01/31 18:07:30;;;;;;;6.70;4.20;;;;;;;4.85;82.52;100994.61;216662;1262;140676;-67
2024/01/31 18:12:35;;;;;;;10.50;4.70;;;;;;;4.76;82.30;100979.71;217396;1259;140965;-68
2024/01/31 18:17:40;;;;;;;14.80;6.50;;;;;;;4.71;82.27;100967.05;216494;1262;140437;-68
2024/01/31 18:22:44;;;;;;;6.40;4.20;;;;;;;4.66;82.49;100964.92;216427;1259;140313;-67
2024/01/31 18:27:50;;;;;;;5.70;4.80;;;;;;;4.59;82.51;100966.68;217238;1259;139977;-68
2024/01/31 18:32:54;;;;;;;7.00;5.00;;;;;;;4.51;82.52;100971.55;216617;1259;140889;-67
2024/01/31 18:38:00;;;;;;;7.50;5.90;;;;;;;4.45;82.46;100970.48;216977;1259;139658;-68
2024/01/31 18:43:05;;;;;;;10.40;5.60;;;;;;;4.34;82.34;100961.95;216563;1259;139756;-68
2024/01/31 18:48:09;;;;;;;5.60;5.10;;;;;;;4.21;82.66;100963.35;216526;1259;141242;-68
2024/01/31 18:53:15;;;;;;;8.70;5.30;;;;;;;4.13;82.59;100961.88;216621;1263;140287;-68
2024/01/31 18:58:20;;;;;;;9.90;6.90;;;;;;;4.02;82.71;100962.48;216704;1264;139896;-68
2024/01/31 19:03:25;;;;;;;9.40;6.60;;;;;;;3.98;82.91;100958.05;217714;1259;140370;-68
2024/01/31 19:08:30;;;;;;;9.90;7.00;;;;;;;3.94;82.85;100949.23;217235;1259;141547;-69
2024/01/31 19:13:34;;;;;;;10.10;6.20;;;;;;;3.87;82.84;100947.48;216410;1259;140251;-69
2024/01/31 19:18:40;;;;;;;7.50;6.10;;;;;;;3.82;82.92;100940.41;216321;1259;140676;-70
2024/01/31 19:23:46;;;;;;;;;;;;;;;3.80;83.29;100935.54;217352;1262;139831;-67
2024/01/31 19:28:52;;;;;;;10.30;5.20;;;;;;;3.76;83.55;100927.84;217691;1259;126199;-67
2024/01/31 19:33:56;;;;;;;9.30;6.70;;;;;;;3.76;83.69;100919.98;217125;1259;139900;-67
2024/01/31 19:39:00;;;;;;;11.00;8.30;;;;;;;3.77;83.69;100917.98;217821;1259;140491;-68
2024/01/31 19:44:04;;;;;;;9.00;7.00;;;;;;;3.78;83.83;100909.39;219553;1259;142043;-67
2024/01/31 19:49:08;;;;;;;9.40;5.40;;;;;;;3.81;83.92;100905.67;216887;1259;140236;-67
2024/01/31 19:54:12;;;;;;;9.70;6.70;;;;;;;3.83;83.67;100910.55;219494;1259;141262;-72
2024/01/31 19:59:17;;;;;;;11.10;7.30;;;;;;;3.88;83.79;100899.71;219568;1260;140515;-72
2024/01/31 20:04:21;;;;;;;9.00;5.80;;;;;;;3.92;83.87;100895.08;217873;1263;140019;-71
2024/01/31 20:09:26;;;;;;;8.40;6.20;;;;;;;3.96;83.87;100889.21;216622;1263;139926;-74
2024/01/31 20:14:31;;;;;;;11.50;6.80;;;;;;;3.95;83.61;100872.73;216366;1260;139820;-73
2024/01/31 20:19:35;;;;;;;7.00;5.40;;;;;;;3.96;83.68;100864.31;216903;1262;141505;-70
2024/01/31 20:24:40;;;;;;;10.40;5.20;;;;;;;3.95;83.44;100861.28;216263;1262;142183;-69
2024/01/31 20:29:45;;;;;;;9.60;5.60;;;;;;;3.94;83.54;100855.41;216650;1263;140869;-69
2024/01/31 20:34:49;;;;;;;6.90;4.70;;;;;;;3.93;83.51;100849.54;216220;1260;140406;-72
2024/01/31 20:39:55;;;;;;;6.90;4.50;;;;;;;3.94;83.42;100844.89;216761;1259;140276;-69
2024/01/31 20:44:59;;;;;;;6.60;4.20;;;;;;;3.91;83.20;100843.47;216430;1259;140471;-69
2024/01/31 20:50:07;;;;;;;7.40;5.50;;;;;;;3.89;83.05;100825.70;216568;1259;140423;-70
2024/01/31 20:55:11;;;;;;;6.10;5.00;;;;;;;3.86;83.00;100815.48;217404;1262;141177;-69
2024/01/31 21:00:20;;;;;;;5.10;3.90;;;;;;;3.83;82.92;100799.41;217740;1262;140229;-71
2024/01/31 21:05:26;;;;;;;6.90;4.40;;;;;;;3.78;82.77;100785.73;216387;1259;140268;-69
2024/01/31 21:10:30;;;;;;;8.20;5.70;;;;;;;3.74;82.72;100776.20;217136;1260;140537;-69
2024/01/31 21:15:33;;;;;;;6.70;5.40;;;;;;;3.71;82.72;100769.77;216828;1264;139376;-68
2024/01/31 21:20:38;;;;;;;7.00;4.00;;;;;;;3.69;82.90;100767.05;216699;1262;140064;-69
2024/01/31 21:25:43;;;;;;;7.80;4.20;;;;;;;3.68;82.77;100757.14;218177;1260;141163;-69
2024/01/31 21:30:49;;;;;;;5.00;4.00;;;;;;;3.69;82.92;100752.89;216619;1259;140317;-69
2024/01/31 21:35:55;;;;;;;6.30;5.00;;;;;;;3.72;82.94;100745.97;218729;1259;139880;-70
2024/01/31 21:41:00;;;;;;;7.80;4.60;;;;;;;3.73;82.82;100748.11;219569;1259;140084;-69
2024/01/31 21:46:05;;;;;;;9.50;5.60;;;;;;;3.76;82.95;100744.11;218547;1262;141566;-69
2024/01/31 21:51:10;;;;;;;8.10;4.90;;;;;;;3.79;83.06;100738.91;217521;1259;140999;-68
2024/01/31 21:56:17;;;;;;;9.30;5.30;;;;;;;3.80;82.87;100729.46;216741;1260;139938;-70
2024/01/31 22:01:22;;;;;;;9.30;4.70;;;;;;;3.78;82.70;100727.08;216723;1260;139977;-70
2024/01/31 22:06:27;;;;;;;11.40;6.20;;;;;;;3.77;83.12;100718.25;217756;1259;140166;-68
2024/01/31 22:11:32;;;;;;;8.90;4.80;;;;;;;3.79;83.19;100707.83;216989;1262;140289;-69
2024/01/31 22:16:39;;;;;;;15.20;4.90;;;;;;;3.81;83.04;100696.61;218155;1263;139703;-70
2024/01/31 22:21:43;;;;;;;8.60;5.70;;;;;;;3.82;83.06;100682.64;216733;1261;140557;-69
2024/01/31 22:26:48;;;;;;;8.20;4.30;;;;;;;3.84;82.87;100674.56;216606;1260;139886;-71
2024/01/31 22:31:52;;;;;;;10.70;4.30;;;;;;;3.83;83.13;100654.39;216589;1265;140020;-70
2024/01/31 22:36:58;;;;;;;7.50;4.10;;;;;;;3.84;83.12;100639.88;216741;1262;139976;-69
2024/01/31 22:42:03;;;;;;;6.10;4.20;;;;;;;3.85;83.02;100631.54;216780;1262;139554;-69
2024/01/31 22:47:07;;;;;;;7.00;4.20;;;;;;;3.84;83.00;100614.76;216780;1260;140085;-68
2024/01/31 22:52:12;;;;;;;5.80;4.70;;;;;;;3.81;82.86;100602.04;216674;1263;139796;-70
2024/01/31 22:57:16;;;;;;;7.40;4.50;;;;;;;3.78;82.91;100594.48;216163;1264;139627;-71
2024/01/31 23:02:20;;;;;;;8.90;5.80;;;;;;;3.77;82.80;100587.88;216313;1263;139612;-72